createdAt,value
2019-06-07T00:02:47.313Z,98344.92
2019-06-07T00:07:54.192Z,98361.80
2019-06-07T00:13:00.689Z,98373.02
2019-06-07T00:18:11.173Z,98355.80
2019-06-07T00:23:22.115Z,98369.31
2019-06-07T00:28:24.090Z,98379.35
2019-06-07T00:33:30.856Z,98395.13
2019-06-07T00:38:37.516Z,98416.66
2019-06-07T00:43:44.179Z,98414.43
2019-06-07T00:48:50.753Z,98416.73
2019-06-07T00:53:57.404Z,98434.66
2019-06-07T00:59:11.348Z,98419.48
2019-06-07T01:04:13.121Z,98416.66
2019-06-07T01:09:23.959Z,98428.69
2019-06-07T01:14:29.058Z,98436.77
2019-06-07T01:19:35.731Z,98426.09
2019-06-07T01:24:42.404Z,98435.20
2019-06-07T01:29:49.064Z,98456.44
2019-06-07T01:34:55.684Z,98450.08
2019-06-07T01:40:02.260Z,98431.58
2019-06-07T01:45:10.436Z,98440.48
2019-06-07T01:50:22.596Z,98433.85
2019-06-07T01:55:32.062Z,98437.95
2019-06-07T02:00:36.272Z,98435.25
2019-06-07T02:05:42.910Z,98436.93
2019-06-07T02:10:49.511Z,98423.25
2019-06-07T02:15:56.046Z,98418.14
2019-06-07T02:21:02.647Z,98419.38
2019-06-07T02:26:09.252Z,98425.94
2019-06-07T02:31:15.789Z,98435.49
2019-06-07T02:36:25.489Z,98429.44
2019-06-07T02:41:38.679Z,98433.10
2019-06-07T02:46:46.599Z,98432.40
2019-06-07T02:51:47.358Z,98436.41
2019-06-07T02:56:58.660Z,98431.27
2019-06-07T03:02:02.575Z,98428.67
2019-06-07T03:07:12.246Z,98422.54
2019-06-07T03:12:22.407Z,98429.10
2019-06-07T03:17:40.884Z,98422.54
2019-06-07T03:22:49.145Z,98419.24
2019-06-07T03:27:55.866Z,98424.19
2019-06-07T03:33:02.380Z,98430.75
2019-06-07T03:38:09.030Z,98427.27
2019-06-07T03:43:15.593Z,98447.52
2019-06-07T03:48:22.176Z,98440.62
2019-06-07T03:53:30.802Z,98448.20
2019-06-07T03:58:49.071Z,98448.20
2019-06-07T04:03:51.883Z,98443.38
2019-06-07T04:08:54.881Z,98435.83
2019-06-07T04:14:02.514Z,98439.71
2019-06-07T04:19:09.173Z,98444.98
2019-06-07T04:24:16.635Z,98445.50
2019-06-07T04:29:33.087Z,98443.38
2019-06-07T04:34:37.513Z,98448.28
2019-06-07T04:39:44.927Z,98443.67
2019-06-07T04:44:53.676Z,98446.25
2019-06-07T04:50:03.086Z,98451.78
2019-06-07T04:55:09.913Z,98456.23
2019-06-07T05:00:48.682Z,98455.41
2019-06-07T05:05:29.338Z,98451.11
2019-06-07T05:10:38.182Z,98461.04
2019-06-07T05:15:44.315Z,98450.51
2019-06-07T05:20:51.036Z,98450.73
2019-06-07T05:25:57.851Z,98459.69
2019-06-07T05:31:06.191Z,98462.69
2019-06-07T05:36:12.859Z,98456.70
2019-06-07T05:41:19.516Z,98458.83
2019-06-07T05:46:26.100Z,98454.49
2019-06-07T05:51:32.751Z,98459.86
2019-06-07T05:56:40.735Z,98453.33
2019-06-07T06:02:00.149Z,98449.98
2019-06-07T06:06:56.964Z,98443.29
2019-06-07T06:12:04.578Z,98443.86
2019-06-07T06:17:11.165Z,98444.64
2019-06-07T06:22:17.798Z,98452.22
2019-06-07T06:28:02.814Z,98450.70
2019-06-07T06:32:42.928Z,98443.92
2019-06-07T06:37:42.682Z,98429.64
2019-06-07T06:42:50.596Z,98430.78
2019-06-07T06:47:57.329Z,98425.34
2019-06-07T06:53:03.926Z,98425.86
2019-06-07T06:58:10.578Z,98431.69
2019-06-07T07:08:26.457Z,98424.83
2019-06-07T07:13:33.091Z,98425.11
2019-06-07T07:18:39.618Z,98426.91
2019-06-07T07:24:08.222Z,98438.41
2019-06-07T07:28:57.314Z,98437.57
2019-06-07T07:39:11.165Z,98444.08
2019-06-07T07:44:17.852Z,98437.30
2019-06-07T07:49:24.525Z,98445.25
2019-06-07T07:54:31.247Z,98439.97
2019-06-07T07:59:44.062Z,98436.48
2019-06-07T08:05:16.684Z,98438.75
2019-06-07T08:09:59.585Z,98433.14
2019-06-07T08:15:03.782Z,98432.47
2019-06-07T08:20:12.412Z,98435.08
2019-06-07T08:25:19.494Z,98429.84
2019-06-07T08:30:49.861Z,98429.77
2019-06-07T08:36:05.814Z,98418.55
2019-06-07T08:40:44.965Z,98418.39
2019-06-07T08:45:58.400Z,98413.30
2019-06-07T08:51:06.617Z,98397.41
2019-06-07T08:56:10.779Z,98399.80
2019-06-07T09:01:16.606Z,98408.37
2019-06-07T09:11:31.546Z,98389.34
2019-06-07T09:16:38.215Z,98383.51
2019-06-07T09:21:44.913Z,98382.80
2019-06-07T09:26:51.575Z,98380.23
2019-06-07T09:32:03.836Z,98379.50
2019-06-07T09:37:54.455Z,98376.04
2019-06-07T09:42:14.989Z,98360.56
2019-06-07T09:47:31.886Z,98353.67
2019-06-07T09:52:29.961Z,98340.56
2019-06-07T09:57:36.627Z,98343.97
2019-06-07T10:02:43.232Z,98330.94
2019-06-07T10:08:02.461Z,98331.91
2019-06-07T10:12:59.547Z,98324.06
2019-06-07T10:18:07.083Z,98313.38
2019-06-07T10:23:13.817Z,98318.89
2019-06-07T10:28:20.622Z,98308.42
2019-06-07T10:33:27.280Z,98295.39
2019-06-07T10:38:33.823Z,98291.61
2019-06-07T10:43:40.322Z,98286.16
2019-06-07T10:48:46.890Z,98290.12
2019-06-07T10:53:53.536Z,98282.81
2019-06-07T10:59:00.092Z,98285.38
2019-06-07T11:04:07.775Z,98281.25
2019-06-07T11:09:14.584Z,98273.11
2019-06-07T11:14:21.086Z,98264.67
2019-06-07T11:19:27.674Z,98261.69
2019-06-07T11:24:34.163Z,98252.60
2019-06-07T11:29:41.684Z,98238.07
2019-06-07T11:34:48.409Z,98235.75
2019-06-07T11:39:55.180Z,98227.05
2019-06-07T11:45:01.922Z,98219.95
2019-06-07T11:50:31.978Z,98217.59
2019-06-07T11:55:41.508Z,98203.89
2019-06-07T12:00:48.184Z,98198.72
2019-06-07T12:05:55.199Z,98200.52
2019-06-07T12:11:02.004Z,98189.06
2019-06-07T12:16:09.123Z,98187.91
2019-06-07T12:21:15.941Z,98177.88
2019-06-07T12:26:22.678Z,98175.43
2019-06-07T12:31:29.362Z,98174.98
2019-06-07T12:36:36.099Z,98173.06
2019-06-07T12:41:42.746Z,98170.48
2019-06-07T12:46:49.390Z,98158.48
2019-06-07T12:51:56.127Z,98151.60
2019-06-07T12:57:02.741Z,98142.61
2019-06-07T13:02:09.437Z,98143.92
2019-06-07T13:07:17.880Z,98140.52
2019-06-07T13:12:24.862Z,98122.94
2019-06-07T13:17:31.539Z,98131.41
2019-06-07T13:22:38.367Z,98117.40
2019-06-07T13:27:45.103Z,98108.52
2019-06-07T13:32:51.697Z,98113.83
2019-06-07T13:37:59.668Z,98099.52
2019-06-07T13:43:07.712Z,98102.80
2019-06-07T13:48:14.318Z,98097.16
2019-06-07T13:53:22.725Z,98093.80
2019-06-07T13:58:29.453Z,98090.30
2019-06-07T14:03:36.080Z,98093.98
2019-06-07T14:08:43.733Z,98078.41
2019-06-07T14:13:50.425Z,98072.86
2019-06-07T14:18:57.079Z,98075.10
2019-06-07T14:24:03.743Z,98060.81
2019-06-07T14:29:10.488Z,98061.14
2019-06-07T14:34:17.104Z,98070.27
2019-06-07T14:39:24.933Z,98065.42
2019-06-07T14:44:31.766Z,98059.13
2019-06-07T14:49:38.499Z,98052.96
2019-06-07T14:54:45.114Z,98054.99
2019-06-07T14:59:51.909Z,98060.41
2019-06-07T15:04:59.037Z,98067.83
2019-06-07T15:10:07.521Z,98059.89
2019-06-07T15:15:14.465Z,98062.63
2019-06-07T15:20:21.325Z,98061.41
2019-06-07T15:25:29.164Z,98058.05
2019-06-07T15:30:35.884Z,98042.14
2019-06-07T15:35:42.428Z,98037.09
2019-06-07T15:40:49.100Z,98035.48
2019-06-07T15:45:55.597Z,98028.03
2019-06-07T15:51:02.067Z,98033.30
2019-06-07T15:56:09.002Z,98030.58
2019-06-07T16:01:15.634Z,98023.71
2019-06-07T16:06:22.281Z,98014.05
2019-06-07T16:11:29.092Z,98007.36
2019-06-07T16:16:37.039Z,98002.30
2019-06-07T16:21:43.942Z,97994.47
2019-06-07T16:26:50.583Z,97997.48
2019-06-07T16:31:57.126Z,98007.25
2019-06-07T16:37:03.682Z,97991.18
2019-06-07T16:42:10.477Z,97982.31
2019-06-07T16:47:17.176Z,97990.80
2019-06-07T16:52:23.885Z,97990.64
2019-06-07T16:57:30.495Z,97983.36
2019-06-07T17:02:38.060Z,97984.53
2019-06-07T17:07:46.730Z,97994.84
2019-06-07T17:12:53.261Z,97993.56
2019-06-07T17:17:59.963Z,98005.44
2019-06-07T17:23:06.645Z,97998.58
2019-06-07T17:28:13.358Z,97989.28
2019-06-07T17:33:20.024Z,97990.44
2019-06-07T17:38:26.775Z,97981.00
2019-06-07T17:43:48.469Z,97978.47
2019-06-07T17:48:41.988Z,97966.09
2019-06-07T17:53:49.926Z,97966.25
2019-06-07T17:58:56.768Z,97966.64
2019-06-07T18:04:04.110Z,97952.59
2019-06-07T18:09:14.070Z,97938.62
2019-06-07T18:14:19.955Z,97934.70
2019-06-07T18:19:26.676Z,97941.67
2019-06-07T18:24:33.490Z,97939.39
2019-06-07T18:29:40.124Z,97929.45
2019-06-07T18:34:46.989Z,97932.00
2019-06-07T18:39:55.216Z,97919.59
2019-06-07T18:45:01.912Z,97923.40
2019-06-07T18:50:09.946Z,97938.30
2019-06-07T18:55:17.492Z,97931.85
2019-06-07T19:00:25.282Z,97929.20
2019-06-07T19:05:31.913Z,97933.53
2019-06-07T19:10:38.664Z,97934.35
2019-06-07T19:15:45.392Z,97932.44
2019-06-07T19:20:52.498Z,97940.57
2019-06-07T19:26:00.700Z,97952.45
2019-06-07T19:31:07.395Z,97939.97
2019-06-07T19:36:14.109Z,97932.67
2019-06-07T19:41:20.846Z,97938.55
2019-06-07T19:46:27.644Z,97944.14
2019-06-07T19:51:36.084Z,97949.38
2019-06-07T19:56:42.708Z,97963.35
2019-06-07T20:01:49.776Z,97982.02
2019-06-07T20:06:56.522Z,97976.95
2019-06-07T20:12:03.234Z,97968.92
2019-06-07T20:17:09.917Z,97974.88
2019-06-07T20:22:16.454Z,97997.38
2019-06-07T20:27:23.145Z,98002.75
2019-06-07T20:32:29.720Z,98003.86
2019-06-07T20:37:36.362Z,97996.92
2019-06-07T20:42:43.013Z,98001.64
2019-06-07T20:47:49.665Z,97997.41
2019-06-07T20:52:56.255Z,97991.02
2019-06-07T20:58:03.714Z,97989.24
2019-06-07T21:03:11.194Z,97970.67
2019-06-07T21:08:17.957Z,97965.91
2019-06-07T21:13:24.543Z,97974.58
2019-06-07T21:18:31.205Z,97971.28
2019-06-07T21:23:37.830Z,97987.86
2019-06-07T21:28:44.536Z,97975.51
2019-06-07T21:33:51.167Z,97969.44
2019-06-07T21:38:57.841Z,97981.54
2019-06-07T21:44:06.113Z,97983.28
2019-06-07T21:49:12.949Z,97988.14
2019-06-07T21:54:19.621Z,97984.72
2019-06-07T21:59:26.226Z,97998.56
2019-06-07T22:04:32.830Z,98022.05
2019-06-07T22:09:39.579Z,98068.98
2019-06-07T22:14:46.062Z,98073.48
2019-06-07T22:19:52.964Z,98083.82
2019-06-07T22:24:59.532Z,98085.21
2019-06-07T22:30:06.732Z,98071.58
2019-06-07T22:35:13.567Z,98094.13
2019-06-07T22:40:20.189Z,98110.53
2019-06-07T22:45:26.845Z,98134.72
2019-06-07T22:50:33.434Z,98214.06
2019-06-07T22:55:40.004Z,98216.56
2019-06-07T23:00:46.468Z,98219.97
2019-06-07T23:05:53.115Z,98252.44
2019-06-07T23:10:59.684Z,98292.78
2019-06-07T23:16:06.602Z,98311.39
2019-06-07T23:21:13.781Z,98331.69
2019-06-07T23:26:20.702Z,98348.72
2019-06-07T23:31:27.207Z,98362.94
2019-06-07T23:36:33.687Z,98386.55
2019-06-07T23:41:40.521Z,98406.37
2019-06-07T23:46:47.151Z,98432.24
2019-06-07T23:51:53.676Z,98457.60
2019-06-07T23:57:00.148Z,98459.36
